Usk, Washington
Current Conditions -  °F | °C
As of 12:53 PM on Thursday 23 Oct 2014 (Local Time) from KDEW Reporting Station
Overcast Overcast  
Wind Chill: 54°   Ceiling: 6000
Heat Index: 54°   Visibility: 10mi
Dew Point: 50°   Wind: 8mph
Humidity: 86%   Direction: 230°SW
Pressure: 29.79"   Gusts: NA
Location:  48.31°N, 117.28°W
Report Text: KDEW 231953Z AUTO 23007KT 10SM FEW013 SCT028 OVC060 12/10 A2979 RMK AO2 SLP087 T01220100
Loading
Personal Weather Stations






























Interactive Weather Map
Tropical Storm Tracking
New forecast layout! Learn more

10-Day Weather Forecast

Advertisements
Track Severe Weather on mobile